sensor_id;sensor_type;location;lat;lon;timestamp;P1;durP1;ratioP1;P2;durP2;ratioP2
57609;SDS011;43435;46.186;9.024;2024-02-26T13:28:06;1.10;;;0.70;;
57609;SDS011;43435;46.186;9.024;2024-02-26T13:30:32;2.03;;;0.88;;
57609;SDS011;43435;46.186;9.024;2024-02-26T13:32:57;1.60;;;0.90;;
57609;SDS011;43435;46.186;9.024;2024-02-26T13:37:59;1.50;;;0.90;;
57609;SDS011;43435;46.186;9.024;2024-02-26T13:40:25;1.52;;;0.90;;
57609;SDS011;43435;46.186;9.024;2024-02-26T13:42:51;1.92;;;0.88;;
57609;SDS011;43435;46.186;9.024;2024-02-26T13:45:17;2.05;;;1.15;;
57609;SDS011;43435;46.186;9.024;2024-02-26T13:47:43;1.15;;;0.90;;
57609;SDS011;43435;46.186;9.024;2024-02-26T13:50:09;1.77;;;0.90;;
57609;SDS011;43435;46.186;9.024;2024-02-26T13:52:34;2.25;;;0.80;;
57609;SDS011;43435;46.186;9.024;2024-02-26T13:55:00;1.17;;;0.80;;
57609;SDS011;43435;46.186;9.024;2024-02-26T13:57:25;2.47;;;0.75;;
57609;SDS011;43435;46.186;9.024;2024-02-26T13:59:51;2.20;;;0.85;;
57609;SDS011;43435;46.186;9.024;2024-02-26T14:02:17;1.77;;;0.80;;
57609;SDS011;43435;46.186;9.024;2024-02-26T14:04:42;2.80;;;1.23;;
57609;SDS011;43435;46.186;9.024;2024-02-26T14:07:07;1.30;;;0.85;;
57609;SDS011;43435;46.186;9.024;2024-02-26T14:09:33;3.65;;;1.58;;
57609;SDS011;43435;46.186;9.024;2024-02-26T14:48:01;0.68;;;0.30;;
57609;SDS011;43435;46.186;9.024;2024-02-26T14:50:27;0.57;;;0.32;;
57609;SDS011;43435;46.186;9.024;2024-02-26T14:52:52;0.30;;;0.20;;
57609;SDS011;43435;46.186;9.024;2024-02-26T14:55:18;0.77;;;0.35;;
57609;SDS011;43435;46.186;9.024;2024-02-26T14:57:43;0.93;;;0.82;;
57609;SDS011;43435;46.186;9.024;2024-02-26T15:00:09;0.90;;;0.45;;
57609;SDS011;43435;46.186;9.024;2024-02-26T15:02:35;1.27;;;0.50;;
57609;SDS011;43435;46.186;9.024;2024-02-26T15:05:00;0.70;;;0.50;;
57609;SDS011;43435;46.186;9.024;2024-02-26T15:07:25;1.85;;;0.98;;
57609;SDS011;43435;46.186;9.024;2024-02-26T15:09:50;1.67;;;0.75;;
57609;SDS011;43435;46.186;9.024;2024-02-26T15:12:16;1.85;;;0.98;;
57609;SDS011;43435;46.186;9.024;2024-02-26T15:14:42;2.55;;;1.13;;
57609;SDS011;43435;46.186;9.024;2024-02-26T15:17:09;2.13;;;1.05;;
57609;SDS011;43435;46.186;9.024;2024-02-26T15:19:38;1.63;;;1.00;;
57609;SDS011;43435;46.186;9.024;2024-02-26T15:22:04;2.22;;;1.20;;
57609;SDS011;43435;46.186;9.024;2024-02-26T15:24:29;3.13;;;1.23;;
57609;SDS011;43435;46.186;9.024;2024-02-26T15:26:54;2.25;;;1.25;;
57609;SDS011;43435;46.186;9.024;2024-02-26T15:29:19;2.05;;;1.00;;
57609;SDS011;43435;46.186;9.024;2024-02-26T15:31:45;2.03;;;1.00;;
57609;SDS011;43435;46.186;9.024;2024-02-26T15:34:10;2.08;;;1.00;;
57609;SDS011;43435;46.186;9.024;2024-02-26T15:36:35;1.60;;;0.90;;
57609;SDS011;43435;46.186;9.024;2024-02-26T15:39:01;1.25;;;0.82;;
57609;SDS011;43435;46.186;9.024;2024-02-26T15:41:27;1.63;;;1.00;;
57609;SDS011;43435;46.186;9.024;2024-02-26T15:43:53;1.73;;;0.90;;
57609;SDS011;43435;46.186;9.024;2024-02-26T15:46:18;1.73;;;0.75;;
57609;SDS011;43435;46.186;9.024;2024-02-26T15:48:43;1.33;;;0.88;;
57609;SDS011;43435;46.186;9.024;2024-02-26T15:51:17;0.75;;;0.55;;
57609;SDS011;43435;46.186;9.024;2024-02-26T15:53:44;1.25;;;0.85;;
57609;SDS011;43435;46.186;9.024;2024-02-26T15:56:09;1.33;;;0.70;;
57609;SDS011;43435;46.186;9.024;2024-02-26T15:58:35;1.38;;;0.55;;
57609;SDS011;43435;46.186;9.024;2024-02-26T16:01:00;2.63;;;0.82;;
57609;SDS011;43435;46.186;9.024;2024-02-26T16:03:25;2.20;;;0.80;;
57609;SDS011;43435;46.186;9.024;2024-02-26T16:05:50;1.13;;;0.65;;
57609;SDS011;43435;46.186;9.024;2024-02-26T16:08:19;1.77;;;0.90;;
57609;SDS011;43435;46.186;9.024;2024-02-26T16:10:46;2.15;;;0.68;;
57609;SDS011;43435;46.186;9.024;2024-02-26T16:13:12;0.90;;;0.70;;
57609;SDS011;43435;46.186;9.024;2024-02-26T16:15:42;0.80;;;0.65;;
57609;SDS011;43435;46.186;9.024;2024-02-26T16:18:11;1.25;;;0.75;;
57609;SDS011;43435;46.186;9.024;2024-02-26T16:20:36;3.05;;;0.80;;
57609;SDS011;43435;46.186;9.024;2024-02-26T16:23:01;1.75;;;0.60;;
57609;SDS011;43435;46.186;9.024;2024-02-26T16:25:31;1.10;;;0.60;;
57609;SDS011;43435;46.186;9.024;2024-02-26T16:27:56;1.40;;;0.57;;
57609;SDS011;43435;46.186;9.024;2024-02-26T16:30:21;1.02;;;0.50;;
57609;SDS011;43435;46.186;9.024;2024-02-26T16:32:47;0.85;;;0.40;;
57609;SDS011;43435;46.186;9.024;2024-02-26T16:35:13;0.88;;;0.50;;
57609;SDS011;43435;46.186;9.024;2024-02-26T16:37:39;0.90;;;0.40;;
57609;SDS011;43435;46.186;9.024;2024-02-26T16:40:04;0.65;;;0.50;;
57609;SDS011;43435;46.186;9.024;2024-02-26T16:42:30;0.57;;;0.40;;
57609;SDS011;43435;46.186;9.024;2024-02-26T16:44:56;1.08;;;0.70;;
57609;SDS011;43435;46.186;9.024;2024-02-26T16:47:21;2.15;;;0.70;;
57609;SDS011;43435;46.186;9.024;2024-02-26T16:49:47;2.55;;;0.63;;
57609;SDS011;43435;46.186;9.024;2024-02-26T16:52:12;1.05;;;0.80;;
57609;SDS011;43435;46.186;9.024;2024-02-26T16:54:38;1.13;;;0.55;;
57609;SDS011;43435;46.186;9.024;2024-02-26T16:57:04;1.23;;;0.75;;
57609;SDS011;43435;46.186;9.024;2024-02-26T16:59:29;1.85;;;0.95;;
57609;SDS011;43435;46.186;9.024;2024-02-26T17:01:55;1.70;;;1.10;;
57609;SDS011;43435;46.186;9.024;2024-02-26T17:04:23;1.95;;;1.15;;
57609;SDS011;43435;46.186;9.024;2024-02-26T17:06:49;1.98;;;1.20;;
57609;SDS011;43435;46.186;9.024;2024-02-26T17:09:14;2.45;;;1.38;;
57609;SDS011;43435;46.186;9.024;2024-02-26T17:11:40;2.17;;;1.25;;
57609;SDS011;43435;46.186;9.024;2024-02-26T17:14:05;2.67;;;1.50;;
57609;SDS011;43435;46.186;9.024;2024-02-26T17:16:31;2.70;;;1.38;;
57609;SDS011;43435;46.186;9.024;2024-02-26T17:18:56;2.55;;;1.20;;
57609;SDS011;43435;46.186;9.024;2024-02-26T17:21:25;2.58;;;1.65;;
57609;SDS011;43435;46.186;9.024;2024-02-26T17:23:50;2.70;;;1.58;;
57609;SDS011;43435;46.186;9.024;2024-02-26T17:26:20;1.83;;;1.33;;
57609;SDS011;43435;46.186;9.024;2024-02-26T17:28:46;3.10;;;1.33;;
57609;SDS011;43435;46.186;9.024;2024-02-26T17:31:12;2.63;;;1.67;;
57609;SDS011;43435;46.186;9.024;2024-02-26T17:33:38;2.42;;;1.42;;
57609;SDS011;43435;46.186;9.024;2024-02-26T17:36:03;3.60;;;1.55;;
57609;SDS011;43435;46.186;9.024;2024-02-26T17:38:29;2.00;;;1.40;;
57609;SDS011;43435;46.186;9.024;2024-02-26T17:40:54;2.45;;;1.83;;
57609;SDS011;43435;46.186;9.024;2024-02-26T17:43:19;3.58;;;1.73;;
57609;SDS011;43435;46.186;9.024;2024-02-26T17:45:45;1.90;;;1.30;;
57609;SDS011;43435;46.186;9.024;2024-02-26T17:48:11;1.70;;;1.35;;
57609;SDS011;43435;46.186;9.024;2024-02-26T17:50:37;2.42;;;1.58;;
57609;SDS011;43435;46.186;9.024;2024-02-26T17:53:03;2.20;;;1.40;;
57609;SDS011;43435;46.186;9.024;2024-02-26T17:55:28;2.47;;;1.50;;
57609;SDS011;43435;46.186;9.024;2024-02-26T17:57:53;1.92;;;1.02;;
57609;SDS011;43435;46.186;9.024;2024-02-26T18:00:19;2.67;;;1.30;;
57609;SDS011;43435;46.186;9.024;2024-02-26T18:02:44;2.17;;;1.45;;
57609;SDS011;43435;46.186;9.024;2024-02-26T18:05:09;2.78;;;1.35;;
57609;SDS011;43435;46.186;9.024;2024-02-26T18:07:36;1.27;;;0.93;;
57609;SDS011;43435;46.186;9.024;2024-02-26T18:10:01;2.75;;;1.58;;
57609;SDS011;43435;46.186;9.024;2024-02-26T18:12:27;2.90;;;1.50;;
57609;SDS011;43435;46.186;9.024;2024-02-26T18:14:52;2.13;;;1.45;;
57609;SDS011;43435;46.186;9.024;2024-02-26T18:17:17;3.33;;;1.98;;
57609;SDS011;43435;46.186;9.024;2024-02-26T18:19:44;3.17;;;1.70;;
57609;SDS011;43435;46.186;9.024;2024-02-26T18:22:10;2.38;;;1.58;;
57609;SDS011;43435;46.186;9.024;2024-02-26T18:24:35;2.80;;;1.60;;
57609;SDS011;43435;46.186;9.024;2024-02-26T18:27:01;2.35;;;1.55;;
57609;SDS011;43435;46.186;9.024;2024-02-26T18:29:26;3.28;;;1.90;;
57609;SDS011;43435;46.186;9.024;2024-02-26T18:31:51;2.75;;;1.42;;
57609;SDS011;43435;46.186;9.024;2024-02-26T18:34:17;3.45;;;1.80;;
57609;SDS011;43435;46.186;9.024;2024-02-26T18:36:44;2.70;;;1.80;;
57609;SDS011;43435;46.186;9.024;2024-02-26T18:39:09;3.05;;;2.30;;
57609;SDS011;43435;46.186;9.024;2024-02-26T18:41:34;3.95;;;2.22;;
57609;SDS011;43435;46.186;9.024;2024-02-26T18:44:00;2.67;;;1.90;;
57609;SDS011;43435;46.186;9.024;2024-02-26T18:46:25;3.92;;;2.20;;
57609;SDS011;43435;46.186;9.024;2024-02-26T18:48:51;3.40;;;2.30;;
57609;SDS011;43435;46.186;9.024;2024-02-26T18:51:18;3.53;;;2.58;;
57609;SDS011;43435;46.186;9.024;2024-02-26T18:53:44;3.95;;;2.20;;
57609;SDS011;43435;46.186;9.024;2024-02-26T18:56:10;2.40;;;1.80;;
57609;SDS011;43435;46.186;9.024;2024-02-26T18:58:36;3.17;;;1.90;;
